^^
Saratoga-Weather Station Historical Data
Daily Summary for March 24, 2020 Units:  Both    English   Metric
Daily Weekly Monthly Yearly Custom
  High: Low: Average:
Temperature: 52 °F /  11.1 °C 41.7 °F /  5.4 °C 47.5 °F /  8.6 °C
Dew Point: 49.6 °F /  9.8 °C 40.5 °F /  4.7 °C 44.6 °F /  7 °C
Humidity: 98% 81% 90%
Wind Speed: 12.1mph /  19.5km/h - 3mph /  4.8km/h
Wind Gust: 22mph /  35.4km/h - -
Wind- - WSW
Pressure: 30.3 in /  1024.7 hPa 29.8 in /  1009.5 hPa -
Precipitation: 0.09 in /  2.3 mm    
Historical Graphs
 
 
Tabular Data for March 24, 2020
Time Temperature Dew Point Pressure Wind Wind Speed Wind Gust Humidity Rainfall Rate (Hourly) solar
00:03 45.5 °F /  7.5 °C 42.8 °F /  6 °C 30.3in /  1024.7hPa West 4mph /  6.4km/h 13mph /  20.9km/h 90% 0.01in /  0.2mm 0 W/m2
00:08 45.1 °F /  7.3 °C 42.6 °F /  5.9 °C 30.3in /  1024.4hPa NW 2mph /  3.2km/h 8mph /  12.9km/h 91% 0.01in /  0.2mm 0 W/m2
00:13 44.8 °F /  7.1 °C 42.3 °F /  5.7 °C 30.3in /  1024.4hPa NW 2.9mph /  4.7km/h 13mph /  20.9km/h 91% 0.01in /  0.2mm 0 W/m2
00:18 44.8 °F /  7.1 °C 42.3 °F /  5.7 °C 30.3in /  1024.4hPa West 2.9mph /  4.7km/h 5mph /  8km/h 91% 0.01in /  0.2mm 0 W/m2
00:23 44.8 °F /  7.1 °C 42.3 °F /  5.7 °C 30.3in /  1024.4hPa WNW 2mph /  3.2km/h 10mph /  16.1km/h 91% 0.01in /  0.2mm 0 W/m2
00:28 44.4 °F /  6.9 °C 42.3 °F /  5.7 °C 30.3in /  1024.4hPa WSW 2mph /  3.2km/h 3mph /  4.8km/h 92% 0.01in /  0.2mm 0 W/m2
00:33 44.4 °F /  6.9 °C 42.3 °F /  5.7 °C 30.3in /  1024.4hPa West 0.9mph /  1.4km/h 4mph /  6.4km/h 92% 0.01in /  0.2mm 0 W/m2
00:38 44.2 °F /  6.8 °C 42.1 °F /  5.6 °C 30.3in /  1024.4hPa West 2mph /  3.2km/h 2mph /  3.2km/h 92% 0.01in /  0.2mm 0 W/m2
00:43 44.2 °F /  6.8 °C 42.1 °F /  5.6 °C 30.3in /  1024.7hPa West 0.9mph /  1.4km/h 4mph /  6.4km/h 92% 0.01in /  0.2mm 0 W/m2
00:48 44.2 °F /  6.8 °C 41.7 °F /  5.4 °C 30.3in /  1024.7hPa West 2mph /  3.2km/h 4mph /  6.4km/h 91% 0.01in /  0.2mm 0 W/m2
00:53 44.2 °F /  6.8 °C 41.5 °F /  5.3 °C 30.3in /  1024.7hPa West 0.9mph /  1.4km/h 2mph /  3.2km/h 90% 0.01in /  0.2mm 0 W/m2
00:58 44.4 °F /  6.9 °C 41.7 °F /  5.4 °C 30.3in /  1024.7hPa West 2.9mph /  4.7km/h 3mph /  4.8km/h 90% 0.01in /  0.2mm 0 W/m2
01:03 44.6 °F /  7 °C 41.5 °F /  5.3 °C 30.3in /  1024.7hPa West 2mph /  3.2km/h 6mph /  9.7km/h 89% 0in /  0.0mm 0 W/m2
01:08 45 °F /  7.2 °C 41.5 °F /  5.3 °C 30.3in /  1024.7hPa WNW 4mph /  6.4km/h 5mph /  8km/h 88% 0in /  0.0mm 0 W/m2
01:13 45.1 °F /  7.3 °C 41.2 °F /  5.1 °C 30.3in /  1024.7hPa WNW 2.9mph /  4.7km/h 8mph /  12.9km/h 86% 0in /  0.0mm 0 W/m2
01:18 45.7 °F /  7.6 °C 41.2 °F /  5.1 °C 30.3in /  1024.4hPa WNW 2.9mph /  4.7km/h 8mph /  12.9km/h 84% 0in /  0.0mm 0 W/m2
01:23 45.7 °F /  7.6 °C 41.2 °F /  5.1 °C 30.3in /  1024.4hPa WNW 6.9mph /  11.1km/h 7mph /  11.3km/h 84% 0in /  0.0mm 0 W/m2
01:28 45.9 °F /  7.7 °C 41 °F /  5 °C 30.3in /  1024.4hPa WSW 2mph /  3.2km/h 4mph /  6.4km/h 83% 0in /  0.0mm 0 W/m2
01:33 45.9 °F /  7.7 °C 41.4 °F /  5.2 °C 30.3in /  1024.4hPa West 2mph /  3.2km/h 3mph /  4.8km/h 84% 0in /  0.0mm 0 W/m2
01:38 45.7 °F /  7.6 °C 41.4 °F /  5.2 °C 30.3in /  1024.7hPa West 2mph /  3.2km/h 4mph /  6.4km/h 85% 0in /  0.0mm 0 W/m2
01:43 45.7 °F /  7.6 °C 41.4 °F /  5.2 °C 30.3in /  1024.7hPa WSW 0.9mph /  1.4km/h 3mph /  4.8km/h 85% 0in /  0.0mm 0 W/m2
01:48 45.7 °F /  7.6 °C 41.7 °F /  5.4 °C 30.3in /  1024.7hPa Calm     86% 0in /  0.0mm 0 W/m2
01:53 45.5 °F /  7.5 °C 41.9 °F /  5.5 °C 30.3in /  1024.7hPa Calm   1mph /  1.6km/h 87% 0in /  0.0mm 0 W/m2
01:58 45.3 °F /  7.4 °C 41.9 °F /  5.5 °C 30.3in /  1024.7hPa Calm     88% 0in /  0.0mm 0 W/m2
02:03 45.3 °F /  7.4 °C 42.3 °F /  5.7 °C 30.3in /  1024.7hPa Calm     89% 0in /  0.0mm 0 W/m2
02:08 45.1 °F /  7.3 °C 42.1 °F /  5.6 °C 30.3in /  1024.7hPa Calm     89% 0in /  0.0mm 0 W/m2
02:13 45.1 °F /  7.3 °C 42.4 °F /  5.8 °C 30.3in /  1024.7hPa WNW 0.9mph /  1.4km/h 3mph /  4.8km/h 90% 0in /  0.0mm 0 W/m2
02:18 45.1 °F /  7.3 °C 42.6 °F /  5.9 °C 30.3in /  1024.7hPa West 0.9mph /  1.4km/h 3mph /  4.8km/h 91% 0in /  0.0mm 0 W/m2
02:23 45.3 °F /  7.4 °C 42.8 °F /  6 °C 30.3in /  1024.7hPa West 0.9mph /  1.4km/h 3mph /  4.8km/h 91% 0in /  0.0mm 0 W/m2
02:28 45.3 °F /  7.4 °C 42.8 °F /  6 °C 30.3in /  1024.7hPa WSW 0.9mph /  1.4km/h 2mph /  3.2km/h 91% 0in /  0.0mm 0 W/m2
02:33 45.5 °F /  7.5 °C 43.3 °F /  6.3 °C 30.3in /  1024.7hPa WNW 2mph /  3.2km/h 6mph /  9.7km/h 92% 0in /  0.0mm 0 W/m2
02:38 45.5 °F /  7.5 °C 43.3 °F /  6.3 °C 30.3in /  1024.7hPa West 2mph /  3.2km/h 3mph /  4.8km/h 92% 0in /  0.0mm 0 W/m2
02:43 45.5 °F /  7.5 °C 43.3 °F /  6.3 °C 30.3in /  1024.7hPa West 2.9mph /  4.7km/h 3mph /  4.8km/h 92% 0in /  0.0mm 0 W/m2
02:48 45.5 °F /  7.5 °C 43.3 °F /  6.3 °C 30.3in /  1024.7hPa WSW 2mph /  3.2km/h 3mph /  4.8km/h 92% 0in /  0.0mm 0 W/m2
02:53 45.3 °F /  7.4 °C 43.3 °F /  6.3 °C 30.3in /  1024.4hPa West 0.9mph /  1.4km/h 3mph /  4.8km/h 93% 0in /  0.0mm 0 W/m2
02:58 45.3 °F /  7.4 °C 43.3 °F /  6.3 °C 30.3in /  1024.4hPa NW 2.9mph /  4.7km/h 3mph /  4.8km/h 93% 0in /  0.0mm 0 W/m2
03:03 45.3 °F /  7.4 °C 43.3 °F /  6.3 °C 30.3in /  1024.7hPa WSW 2.9mph /  4.7km/h 3mph /  4.8km/h 93% 0in /  0.0mm 0 W/m2
03:08 45.3 °F /  7.4 °C 43.3 °F /  6.3 °C 30.3in /  1024.7hPa West 2mph /  3.2km/h 3mph /  4.8km/h 93% 0in /  0.0mm 0 W/m2
03:13 45.3 °F /  7.4 °C 43.3 °F /  6.3 °C 30.3in /  1024.7hPa WSW 2mph /  3.2km/h 5mph /  8km/h 93% 0in /  0.0mm 0 W/m2
03:18 45.3 °F /  7.4 °C 43.3 °F /  6.3 °C 30.3in /  1024.7hPa West 2mph /  3.2km/h 3mph /  4.8km/h 93% 0in /  0.0mm 0 W/m2
03:23 45.3 °F /  7.4 °C 43.3 °F /  6.3 °C 30.3in /  1024.7hPa SW 0.9mph /  1.4km/h 4mph /  6.4km/h 93% 0in /  0.0mm 0 W/m2
03:28 45.3 °F /  7.4 °C 43.3 °F /  6.3 °C 30.3in /  1024.4hPa West 0.9mph /  1.4km/h 3mph /  4.8km/h 93% 0in /  0.0mm 0 W/m2
03:33 45.3 °F /  7.4 °C 43.3 °F /  6.3 °C 30.3in /  1024.4hPa West 0.9mph /  1.4km/h 4mph /  6.4km/h 93% 0in /  0.0mm 0 W/m2
03:38 45.1 °F /  7.3 °C 43.2 °F /  6.2 °C 30.3in /  1024.7hPa West 2.9mph /  4.7km/h 3mph /  4.8km/h 93% 0in /  0.0mm 0 W/m2
03:43 45.1 °F /  7.3 °C 43.2 °F /  6.2 °C 30.3in /  1024.7hPa West 4mph /  6.4km/h 5mph /  8km/h 93% 0in /  0.0mm 0 W/m2
03:48 45 °F /  7.2 °C 42.8 °F /  6 °C 30.3in /  1024.4hPa West 2.9mph /  4.7km/h 4mph /  6.4km/h 92% 0in /  0.0mm 0 W/m2
03:53 44.8 °F /  7.1 °C 42.1 °F /  5.6 °C 30.3in /  1024.4hPa West 0.9mph /  1.4km/h 9mph /  14.5km/h 90% 0in /  0.0mm 0 W/m2
03:58 44.6 °F /  7 °C 41.9 °F /  5.5 °C 30.3in /  1024.4hPa West 2mph /  3.2km/h 2mph /  3.2km/h 90% 0.01in /  0.2mm 0 W/m2
04:03 44.2 °F /  6.8 °C 41 °F /  5 °C 30.3in /  1024.4hPa WSW 2mph /  3.2km/h 6mph /  9.7km/h 88% 0.01in /  0.2mm 0 W/m2
04:08 44.2 °F /  6.8 °C 41 °F /  5 °C 30.3in /  1024.4hPa SSW 4mph /  6.4km/h 4mph /  6.4km/h 88% 0.01in /  0.2mm 0 W/m2
04:13 44.1 °F /  6.7 °C 40.8 °F /  4.9 °C 30.2in /  1024.0hPa WNW 2.9mph /  4.7km/h 3mph /  4.8km/h 88% 0.01in /  0.2mm 0 W/m2
04:18 43.9 °F /  6.6 °C 40.6 °F /  4.8 °C 30.2in /  1024.0hPa West 2.9mph /  4.7km/h 4mph /  6.4km/h 88% 0.01in /  0.2mm 0 W/m2
04:24 43.7 °F /  6.5 °C 40.5 °F /  4.7 °C 30.3in /  1024.4hPa West 0.9mph /  1.4km/h 2mph /  3.2km/h 88% 0.01in /  0.2mm 0 W/m2
04:29 43.7 °F /  6.5 °C 40.5 °F /  4.7 °C 30.3in /  1024.4hPa West 2mph /  3.2km/h 4mph /  6.4km/h 88% 0.01in /  0.2mm 0 W/m2
04:34 43.7 °F /  6.5 °C 40.5 °F /  4.7 °C 30.3in /  1024.4hPa WSW 0.9mph /  1.4km/h 2mph /  3.2km/h 88% 0.01in /  0.2mm 0 W/m2
04:39 43.7 °F /  6.5 °C 40.5 °F /  4.7 °C 30.3in /  1024.4hPa WSW 0.9mph /  1.4km/h 3mph /  4.8km/h 88% 0.01in /  0.2mm 0 W/m2
04:44 43.7 °F /  6.5 °C 40.6 °F /  4.8 °C 30.3in /  1024.4hPa WSW 0.9mph /  1.4km/h 3mph /  4.8km/h 89% 0.01in /  0.2mm 0 W/m2
04:49 43.7 °F /  6.5 °C 40.6 °F /  4.8 °C 30.3in /  1024.4hPa Calm   2mph /  3.2km/h 89% 0.01in /  0.2mm 0 W/m2
04:54 43.5 °F /  6.4 °C 40.8 °F /  4.9 °C 30.3in /  1024.4hPa Calm   3mph /  4.8km/h 90% 0.01in /  0.2mm 0 W/m2
04:59 43.5 °F /  6.4 °C 40.8 °F /  4.9 °C 30.3in /  1024.4hPa SW 0.9mph /  1.4km/h 1mph /  1.6km/h 90% 0in /  0.0mm 0 W/m2
05:04 43.3 °F /  6.3 °C 40.8 °F /  4.9 °C 30.3in /  1024.4hPa Calm   1mph /  1.6km/h 91% 0in /  0.0mm 0 W/m2
05:09 43.3 °F /  6.3 °C 40.8 °F /  4.9 °C 30.3in /  1024.4hPa SW 0.9mph /  1.4km/h 1mph /  1.6km/h 91% 0in /  0.0mm 0 W/m2
05:14 43.2 °F /  6.2 °C 40.6 °F /  4.8 °C 30.3in /  1024.4hPa Calm     91% 0in /  0.0mm 0 W/m2
05:19 43.2 °F /  6.2 °C 41 °F /  5 °C 30.3in /  1024.4hPa Calm   2mph /  3.2km/h 92% 0in /  0.0mm 0 W/m2
05:24 43.2 °F /  6.2 °C 41 °F /  5 °C 30.3in /  1024.4hPa Calm     92% 0in /  0.0mm 0 W/m2
05:29 43 °F /  6.1 °C 40.8 °F /  4.9 °C 30.3in /  1024.4hPa South 0.9mph /  1.4km/h 1mph /  1.6km/h 92% 0in /  0.0mm 0 W/m2
05:34 43 °F /  6.1 °C 41.2 °F /  5.1 °C 30.3in /  1024.4hPa Calm     93% 0in /  0.0mm 0 W/m2
05:39 42.8 °F /  6 °C 41 °F /  5 °C 30.2in /  1024.0hPa Calm   1mph /  1.6km/h 93% 0in /  0.0mm 0 W/m2
05:44 42.8 °F /  6 °C 41 °F /  5 °C 30.2in /  1024.0hPa SW 2mph /  3.2km/h 2mph /  3.2km/h 93% 0in /  0.0mm 0 W/m2
05:50 42.6 °F /  5.9 °C 40.8 °F /  4.9 °C 30.2in /  1024.0hPa Calm   1mph /  1.6km/h 93% 0in /  0.0mm 0 W/m2
05:55 42.6 °F /  5.9 °C 40.8 °F /  4.9 °C 30.2in /  1024.0hPa Calm   1mph /  1.6km/h 93% 0in /  0.0mm 0 W/m2
06:00 42.6 °F /  5.9 °C 41 °F /  5 °C 30.2in /  1024.0hPa Calm     94% 0in /  0.0mm 0 W/m2
06:05 42.6 °F /  5.9 °C 41 °F /  5 °C 30.2in /  1024.0hPa Calm     94% 0.01in /  0.2mm 0 W/m2
06:10 42.6 °F /  5.9 °C 41 °F /  5 °C 30.2in /  1023.7hPa East 0.9mph /  1.4km/h 2mph /  3.2km/h 94% 0.01in /  0.2mm 0 W/m2
06:15 42.4 °F /  5.8 °C 40.8 °F /  4.9 °C 30.2in /  1023.7hPa East 0.9mph /  1.4km/h 3mph /  4.8km/h 94% 0.01in /  0.2mm 0 W/m2
06:20 42.4 °F /  5.8 °C 40.8 °F /  4.9 °C 30.2in /  1023.7hPa East 2mph /  3.2km/h 2mph /  3.2km/h 94% 0.02in /  0.5mm 0 W/m2
06:25 42.4 °F /  5.8 °C 40.8 °F /  4.9 °C 30.2in /  1023.7hPa East 0.9mph /  1.4km/h 2mph /  3.2km/h 94% 0.02in /  0.5mm 0 W/m2
06:30 42.4 °F /  5.8 °C 41.2 °F /  5.1 °C 30.2in /  1023.7hPa Calm     95% 0.02in /  0.5mm 0 W/m2
06:35 42.4 °F /  5.8 °C 41.2 °F /  5.1 °C 30.2in /  1023.4hPa East 2mph /  3.2km/h 3mph /  4.8km/h 95% 0.02in /  0.5mm 0 W/m2
06:40 42.3 °F /  5.7 °C 41 °F /  5 °C 30.2in /  1023.4hPa Calm   2mph /  3.2km/h 95% 0.02in /  0.5mm 0 W/m2
06:45 42.3 °F /  5.7 °C 41 °F /  5 °C 30.2in /  1023.7hPa ESE 0.9mph /  1.4km/h 2mph /  3.2km/h 95% 0.02in /  0.5mm 0 W/m2
06:50 42.3 °F /  5.7 °C 41 °F /  5 °C 30.2in /  1023.4hPa ESE 0.9mph /  1.4km/h 1mph /  1.6km/h 95% 0.02in /  0.5mm 0 W/m2
06:55 42.1 °F /  5.6 °C 40.8 °F /  4.9 °C 30.2in /  1023.4hPa ESE 0.9mph /  1.4km/h 2mph /  3.2km/h 95% 0.02in /  0.5mm 0 W/m2
07:00 42.1 °F /  5.6 °C 40.8 °F /  4.9 °C 30.2in /  1023.4hPa Calm   1mph /  1.6km/h 95% 0.02in /  0.5mm 0 W/m2
07:05 42.1 °F /  5.6 °C 40.8 °F /  4.9 °C 30.2in /  1023.0hPa Calm   1mph /  1.6km/h 95% 0.02in /  0.5mm 0 W/m2
07:10 41.9 °F /  5.5 °C 40.6 °F /  4.8 °C 30.2in /  1023.0hPa ESE 2.9mph /  4.7km/h 3mph /  4.8km/h 95% 0.02in /  0.5mm 0 W/m2
07:15 41.9 °F /  5.5 °C 40.6 °F /  4.8 °C 30.2in /  1023.0hPa ESE 2mph /  3.2km/h 3mph /  4.8km/h 95% 0.03in /  0.8mm 0 W/m2
07:20 41.9 °F /  5.5 °C 40.6 °F /  4.8 °C 30.2in /  1023.0hPa Calm   6mph /  9.7km/h 95% 0.02in /  0.5mm 0 W/m2
07:25 41.7 °F /  5.4 °C 40.6 °F /  4.8 °C 30.2in /  1022.7hPa East 2mph /  3.2km/h 3mph /  4.8km/h 96% 0.02in /  0.5mm 0 W/m2
07:30 41.7 °F /  5.4 °C 40.5 °F /  4.7 °C 30.2in /  1022.7hPa East 2mph /  3.2km/h 3mph /  4.8km/h 95% 0.03in /  0.8mm 0 W/m2
07:35 41.7 °F /  5.4 °C 40.6 °F /  4.8 °C 30.2in /  1022.7hPa SE 2mph /  3.2km/h 3mph /  4.8km/h 96% 0.03in /  0.8mm 0 W/m2
07:40 41.7 °F /  5.4 °C 40.6 °F /  4.8 °C 30.2in /  1022.7hPa East 2mph /  3.2km/h 3mph /  4.8km/h 96% 0.03in /  0.8mm 0 W/m2
07:45 41.7 °F /  5.4 °C 40.6 °F /  4.8 °C 30.2in /  1022.7hPa East 0.9mph /  1.4km/h 3mph /  4.8km/h 96% 0.03in /  0.8mm 0 W/m2
07:50 41.7 °F /  5.4 °C 40.6 °F /  4.8 °C 30.2in /  1022.7hPa East 2mph /  3.2km/h 3mph /  4.8km/h 96% 0.03in /  0.8mm 5 W/m2
07:55 41.7 °F /  5.4 °C 40.6 °F /  4.8 °C 30.2in /  1022.4hPa ESE 0.9mph /  1.4km/h 2mph /  3.2km/h 96% 0.03in /  0.8mm 7 W/m2
08:00 41.7 °F /  5.4 °C 40.6 °F /  4.8 °C 30.2in /  1022.4hPa East 2mph /  3.2km/h 3mph /  4.8km/h 96% 0.03in /  0.8mm 7 W/m2
08:05 41.7 °F /  5.4 °C 40.6 °F /  4.8 °C 30.2in /  1022.4hPa ESE 2mph /  3.2km/h 2mph /  3.2km/h 96% 0.02in /  0.5mm 7 W/m2
08:10 41.7 °F /  5.4 °C 40.6 °F /  4.8 °C 30.2in /  1022.4hPa East 4mph /  6.4km/h 5mph /  8km/h 96% 0.02in /  0.5mm 9 W/m2
08:15 41.7 °F /  5.4 °C 40.6 °F /  4.8 °C 30.2in /  1022.4hPa ESE 2mph /  3.2km/h 3mph /  4.8km/h 96% 0.02in /  0.5mm 12 W/m2
08:20 41.7 °F /  5.4 °C 40.6 °F /  4.8 °C 30.2in /  1022.4hPa ENE 0.9mph /  1.4km/h 1mph /  1.6km/h 96% 0.02in /  0.5mm 19 W/m2
08:26 41.7 °F /  5.4 °C 40.6 °F /  4.8 °C 30.2in /  1022.4hPa East 2mph /  3.2km/h 3mph /  4.8km/h 96% 0.02in /  0.5mm 19 W/m2
08:31 41.9 °F /  5.5 °C 40.8 °F /  4.9 °C 30.2in /  1022.0hPa ENE 2mph /  3.2km/h 3mph /  4.8km/h 96% 0.01in /  0.2mm 23 W/m2
08:36 41.9 °F /  5.5 °C 40.8 °F /  4.9 °C 30.2in /  1022.0hPa ESE 2mph /  3.2km/h 3mph /  4.8km/h 96% 0.01in /  0.2mm 21 W/m2
08:41 42.1 °F /  5.6 °C 41 °F /  5 °C 30.2in /  1022.0hPa East 2mph /  3.2km/h 4mph /  6.4km/h 96% 0.01in /  0.2mm 19 W/m2
08:46 42.1 °F /  5.6 °C 41 °F /  5 °C 30.2in /  1021.7hPa ENE 0.9mph /  1.4km/h 2mph /  3.2km/h 96% 0.01in /  0.2mm 25 W/m2
08:51 42.1 °F /  5.6 °C 41 °F /  5 °C 30.2in /  1021.7hPa Calm   3mph /  4.8km/h 96% 0.01in /  0.2mm 25 W/m2
08:56 42.3 °F /  5.7 °C 41.2 °F /  5.1 °C 30.2in /  1021.7hPa East 2.9mph /  4.7km/h 6mph /  9.7km/h 96% 0in /  0.0mm 23 W/m2
09:01 42.3 °F /  5.7 °C 41.2 °F /  5.1 °C 30.2in /  1021.7hPa ESE 2mph /  3.2km/h 4mph /  6.4km/h 96% 0in /  0.0mm 19 W/m2
09:06 42.3 °F /  5.7 °C 41.2 °F /  5.1 °C 30.2in /  1021.3hPa East 2mph /  3.2km/h 7mph /  11.3km/h 96% 0in /  0.0mm 26 W/m2
09:11 42.3 °F /  5.7 °C 41.2 °F /  5.1 °C 30.2in /  1021.3hPa East 2mph /  3.2km/h 5mph /  8km/h 96% 0in /  0.0mm 30 W/m2
09:16 42.4 °F /  5.8 °C 41.7 °F /  5.4 °C 30.2in /  1021.3hPa ENE 2mph /  3.2km/h 3mph /  4.8km/h 97% 0in /  0.0mm 30 W/m2
09:21 42.4 °F /  5.8 °C 41.4 °F /  5.2 °C 30.2in /  1021.3hPa Calm   4mph /  6.4km/h 96% 0in /  0.0mm 28 W/m2
09:26 42.6 °F /  5.9 °C 41.5 °F /  5.3 °C 30.2in /  1021.3hPa East 2mph /  3.2km/h 3mph /  4.8km/h 96% 0.01in /  0.2mm 30 W/m2
09:31 42.6 °F /  5.9 °C 41.9 °F /  5.5 °C 30.2in /  1021.3hPa East 2.9mph /  4.7km/h 3mph /  4.8km/h 97% 0.01in /  0.2mm 33 W/m2
09:36 42.8 °F /  6 °C 42.1 °F /  5.6 °C 30.2in /  1021.3hPa ESE 0.9mph /  1.4km/h 2mph /  3.2km/h 97% 0.01in /  0.2mm 39 W/m2
09:41 43 °F /  6.1 °C 42.3 °F /  5.7 °C 30.2in /  1021.3hPa Calm   3mph /  4.8km/h 97% 0.01in /  0.2mm 46 W/m2
09:46 43 °F /  6.1 °C 42.3 °F /  5.7 °C 30.2in /  1021.0hPa ESE 2mph /  3.2km/h 2mph /  3.2km/h 97% 0.02in /  0.5mm 42 W/m2
09:51 43 °F /  6.1 °C 42.3 °F /  5.7 °C 30.2in /  1021.0hPa Calm   1mph /  1.6km/h 97% 0.02in /  0.5mm 49 W/m2
09:56 43.2 °F /  6.2 °C 42.4 °F /  5.8 °C 30.2in /  1021.0hPa East 0.9mph /  1.4km/h 3mph /  4.8km/h 97% 0.02in /  0.5mm 49 W/m2
10:01 43.3 °F /  6.3 °C 42.6 °F /  5.9 °C 30.1in /  1020.7hPa Calm   2mph /  3.2km/h 97% 0.02in /  0.5mm 44 W/m2
10:06 43.3 °F /  6.3 °C 42.6 °F /  5.9 °C 30.1in /  1020.7hPa ESE 0.9mph /  1.4km/h 3mph /  4.8km/h 97% 0.02in /  0.5mm 51 W/m2
10:11 43.5 °F /  6.4 °C 42.8 °F /  6 °C 30.1in /  1020.7hPa Calm   4mph /  6.4km/h 97% 0.02in /  0.5mm 58 W/m2
10:16 43.7 °F /  6.5 °C 43 °F /  6.1 °C 30.1in /  1020.3hPa East 2mph /  3.2km/h 3mph /  4.8km/h 97% 0.02in /  0.5mm 93 W/m2
10:21 43.9 °F /  6.6 °C 43.2 °F /  6.2 °C 30.1in /  1020.3hPa ESE 4mph /  6.4km/h 4mph /  6.4km/h 97% 0.02in /  0.5mm 113 W/m2
10:26 44.1 °F /  6.7 °C 43.3 °F /  6.3 °C 30.1in /  1020.0hPa ESE 0.9mph /  1.4km/h 4mph /  6.4km/h 97% 0.01in /  0.2mm 95 W/m2
10:31 44.2 °F /  6.8 °C 43.5 °F /  6.4 °C 30.1in /  1020.0hPa ESE 0.9mph /  1.4km/h 2mph /  3.2km/h 97% 0.01in /  0.2mm 79 W/m2
10:36 44.6 °F /  7 °C 43.9 °F /  6.6 °C 30.1in /  1020.0hPa ESE 0.9mph /  1.4km/h 4mph /  6.4km/h 97% 0.01in /  0.2mm 97 W/m2
10:41 45 °F /  7.2 °C 44.2 °F /  6.8 °C 30.1in /  1019.6hPa Calm   3mph /  4.8km/h 97% 0.01in /  0.2mm 70 W/m2
10:46 45.1 °F /  7.3 °C 44.4 °F /  6.9 °C 30.1in /  1019.6hPa East 2.9mph /  4.7km/h 4mph /  6.4km/h 97% 0in /  0.0mm 113 W/m2
10:51 45.3 °F /  7.4 °C 44.6 °F /  7 °C 30.1in /  1019.6hPa ESE 2mph /  3.2km/h 3mph /  4.8km/h 97% 0in /  0.0mm 76 W/m2
10:56 45.7 °F /  7.6 °C 45 °F /  7.2 °C 30.1in /  1019.3hPa Calm   2mph /  3.2km/h 97% 0in /  0.0mm 84 W/m2
11:01 46.2 °F /  7.9 °C 45.5 °F /  7.5 °C 30.1in /  1019.3hPa NNW 0.9mph /  1.4km/h 3mph /  4.8km/h 97% 0in /  0.0mm 79 W/m2
11:06 47.1 °F /  8.4 °C 46.6 °F /  8.1 °C 30.1in /  1019.3hPa NW 4mph /  6.4km/h 7mph /  11.3km/h 98% 0in /  0.0mm 79 W/m2
11:11 47.8 °F /  8.8 °C 47.3 °F /  8.5 °C 30.1in /  1019.0hPa NW 2.9mph /  4.7km/h 3mph /  4.8km/h 98% 0in /  0.0mm 91 W/m2
11:16 48.4 °F /  9.1 °C 47.8 °F /  8.8 °C 30.1in /  1019.0hPa NNW 2mph /  3.2km/h 5mph /  8km/h 98% 0in /  0.0mm 86 W/m2
11:21 48.6 °F /  9.2 °C 48 °F /  8.9 °C 30.1in /  1019.0hPa West 8.1mph /  13km/h 8mph /  12.9km/h 98% 0in /  0.0mm 90 W/m2
11:26 48.7 °F /  9.3 °C 48.2 °F /  9 °C 30.1in /  1019.0hPa NNW 2.9mph /  4.7km/h 7mph /  11.3km/h 98% 0in /  0.0mm 88 W/m2
11:31 48.9 °F /  9.4 °C 48 °F /  8.9 °C 30.1in /  1018.6hPa West 4mph /  6.4km/h 7mph /  11.3km/h 97% 0in /  0.0mm 98 W/m2
11:36 49.1 °F /  9.5 °C 48.6 °F /  9.2 °C 30.1in /  1018.6hPa NNW 2mph /  3.2km/h 4mph /  6.4km/h 98% 0in /  0.0mm 84 W/m2
11:41 49.3 °F /  9.6 °C 48.4 °F /  9.1 °C 30.1in /  1018.6hPa WSW 4.9mph /  7.9km/h 5mph /  8km/h 97% 0in /  0.0mm 79 W/m2
11:46 49.3 °F /  9.6 °C 48.4 °F /  9.1 °C 30.1in /  1018.6hPa West 2mph /  3.2km/h 6mph /  9.7km/h 97% 0in /  0.0mm 74 W/m2
11:51 49.5 °F /  9.7 °C 48.6 °F /  9.2 °C 30.1in /  1018.6hPa NE 2mph /  3.2km/h 4mph /  6.4km/h 97% 0in /  0.0mm 70 W/m2
11:56 49.5 °F /  9.7 °C 48.6 °F /  9.2 °C 30.1in /  1018.3hPa SW 4mph /  6.4km/h 9mph /  14.5km/h 97% 0in /  0.0mm 60 W/m2
12:02 49.6 °F /  9.8 °C 48.7 °F /  9.3 °C 30.1in /  1018.3hPa WNW 10.1mph /  16.3km/h 14mph /  22.5km/h 97% 0in /  0.0mm 67 W/m2
12:07 49.6 °F /  9.8 °C 48.7 °F /  9.3 °C 30.1in /  1018.3hPa West 8.1mph /  13km/h 12mph /  19.3km/h 97% 0in /  0.0mm 72 W/m2
12:12 49.6 °F /  9.8 °C 48.7 °F /  9.3 °C 30.1in /  1018.0hPa SSW 0.9mph /  1.4km/h 7mph /  11.3km/h 97% 0in /  0.0mm 95 W/m2
12:17 49.6 °F /  9.8 °C 48.7 °F /  9.3 °C 30.1in /  1018.0hPa WNW 6.9mph /  11.1km/h 10mph /  16.1km/h 97% 0in /  0.0mm 104 W/m2
12:22 49.8 °F /  9.9 °C 48.7 °F /  9.3 °C 30.1in /  1017.6hPa NNW 4.9mph /  7.9km/h 8mph /  12.9km/h 96% 0in /  0.0mm 102 W/m2
12:27 49.8 °F /  9.9 °C 48.9 °F /  9.4 °C 30.1in /  1017.6hPa NW 10.1mph /  16.3km/h 10mph /  16.1km/h 97% 0in /  0.0mm 91 W/m2
12:32 50 °F /  10 °C 48.9 °F /  9.4 °C 30.1in /  1017.6hPa West 2mph /  3.2km/h 6mph /  9.7km/h 96% 0in /  0.0mm 97 W/m2
12:37 50 °F /  10 °C 48.9 °F /  9.4 °C 30.1in /  1017.6hPa WSW 8.9mph /  14.3km/h 19mph /  30.6km/h 96% 0in /  0.0mm 104 W/m2
12:42 50.2 °F /  10.1 °C 49.1 °F /  9.5 °C 30in /  1017.3hPa SW 2.9mph /  4.7km/h 10mph /  16.1km/h 96% 0in /  0.0mm 118 W/m2
12:47 50.2 °F /  10.1 °C 49.1 °F /  9.5 °C 30in /  1017.3hPa WNW 0.9mph /  1.4km/h 18mph /  29km/h 96% 0in /  0.0mm 121 W/m2
12:52 50.4 °F /  10.2 °C 49.3 °F /  9.6 °C 30in /  1016.9hPa NW 4mph /  6.4km/h 7mph /  11.3km/h 96% 0in /  0.0mm 125 W/m2
12:57 50.4 °F /  10.2 °C 49.3 °F /  9.6 °C 30in /  1016.9hPa NW 4mph /  6.4km/h 5mph /  8km/h 96% 0in /  0.0mm 167 W/m2
13:02 50.4 °F /  10.2 °C 49.3 °F /  9.6 °C 30in /  1016.6hPa SSW 6.9mph /  11.1km/h 7mph /  11.3km/h 96% 0in /  0.0mm 162 W/m2
13:07 50.5 °F /  10.3 °C 49.1 °F /  9.5 °C 30in /  1016.6hPa NW 0.9mph /  1.4km/h 4mph /  6.4km/h 95% 0in /  0.0mm 146 W/m2
13:12 50.5 °F /  10.3 °C 49.1 °F /  9.5 °C 30in /  1016.6hPa SE 2mph /  3.2km/h 9mph /  14.5km/h 95% 0in /  0.0mm 118 W/m2
13:17 50.7 °F /  10.4 °C 49.3 °F /  9.6 °C 30in /  1016.6hPa NW 4mph /  6.4km/h 7mph /  11.3km/h 95% 0in /  0.0mm 116 W/m2
13:22 50.7 °F /  10.4 °C 49.3 °F /  9.6 °C 30in /  1016.6hPa NW 4.9mph /  7.9km/h 11mph /  17.7km/h 95% 0in /  0.0mm 109 W/m2
13:27 50.9 °F /  10.5 °C 49.3 °F /  9.6 °C 30in /  1016.3hPa NW 0.9mph /  1.4km/h 8mph /  12.9km/h 94% 0in /  0.0mm 109 W/m2
13:32 50.9 °F /  10.5 °C 49.3 °F /  9.6 °C 30in /  1016.3hPa North 4mph /  6.4km/h 11mph /  17.7km/h 94% 0in /  0.0mm 107 W/m2
13:37 51.1 °F /  10.6 °C 49.5 °F /  9.7 °C 30in /  1016.3hPa Calm   5mph /  8km/h 94% 0in /  0.0mm 84 W/m2
13:42 51.1 °F /  10.6 °C 49.5 °F /  9.7 °C 30in /  1015.9hPa NNW 2mph /  3.2km/h 9mph /  14.5km/h 94% 0in /  0.0mm 86 W/m2
13:47 51.1 °F /  10.6 °C 49.5 °F /  9.7 °C 30in /  1015.9hPa North 4mph /  6.4km/h 4mph /  6.4km/h 94% 0in /  0.0mm 74 W/m2
13:53 51.3 °F /  10.7 °C 49.6 °F /  9.8 °C 30in /  1015.9hPa WSW 4mph /  6.4km/h 8mph /  12.9km/h 94% 0in /  0.0mm 72 W/m2
13:58 51.3 °F /  10.7 °C 49.3 °F /  9.6 °C 30in /  1015.9hPa WNW 2mph /  3.2km/h 10mph /  16.1km/h 93% 0.01in /  0.2mm 60 W/m2
14:03 51.3 °F /  10.7 °C 49.3 °F /  9.6 °C 30in /  1015.6hPa West 8.9mph /  14.3km/h 9mph /  14.5km/h 93% 0.01in /  0.2mm 58 W/m2
14:08 51.3 °F /  10.7 °C 49.3 °F /  9.6 °C 30in /  1015.2hPa NW 2mph /  3.2km/h 6mph /  9.7km/h 93% 0.01in /  0.2mm 60 W/m2
14:13 51.4 °F /  10.8 °C 49.5 °F /  9.7 °C 30in /  1015.2hPa NNW 2mph /  3.2km/h 4mph /  6.4km/h 93% 0.01in /  0.2mm 88 W/m2
14:18 51.4 °F /  10.8 °C 49.5 °F /  9.7 °C 30in /  1015.2hPa NW 4.9mph /  7.9km/h 11mph /  17.7km/h 93% 0.01in /  0.2mm 90 W/m2
14:23 51.4 °F /  10.8 °C 49.5 °F /  9.7 °C 30in /  1015.2hPa NNW 0.9mph /  1.4km/h 3mph /  4.8km/h 93% 0.01in /  0.2mm 93 W/m2
14:28 51.6 °F /  10.9 °C 49.5 °F /  9.7 °C 30in /  1014.9hPa West 2.9mph /  4.7km/h 11mph /  17.7km/h 92% 0.01in /  0.2mm 79 W/m2
14:33 51.6 °F /  10.9 °C 49.5 °F /  9.7 °C 30in /  1014.6hPa Calm   4mph /  6.4km/h 92% 0.01in /  0.2mm 67 W/m2
14:38 51.6 °F /  10.9 °C 49.5 °F /  9.7 °C 30in /  1014.6hPa ESE 2.9mph /  4.7km/h 10mph /  16.1km/h 92% 0.01in /  0.2mm 74 W/m2
14:43 51.6 °F /  10.9 °C 49.5 °F /  9.7 °C 30in /  1014.6hPa WNW 2.9mph /  4.7km/h 10mph /  16.1km/h 92% 0.01in /  0.2mm 98 W/m2
14:48 51.4 °F /  10.8 °C 49.3 °F /  9.6 °C 30in /  1014.2hPa NW 6.9mph /  11.1km/h 11mph /  17.7km/h 92% 0.01in /  0.2mm 83 W/m2
14:53 51.4 °F /  10.8 °C 49.3 °F /  9.6 °C 30in /  1014.6hPa WNW 6.9mph /  11.1km/h 8mph /  12.9km/h 92% 0.01in /  0.2mm 81 W/m2
14:58 51.4 °F /  10.8 °C 49.3 °F /  9.6 °C 30in /  1014.6hPa NW 8.9mph /  14.3km/h 11mph /  17.7km/h 92% 0in /  0.0mm 88 W/m2
15:03 51.3 °F /  10.7 °C 49.1 °F /  9.5 °C 30in /  1014.6hPa WSW 12.1mph /  19.5km/h 17mph /  27.4km/h 92% 0in /  0.0mm 81 W/m2
15:08 51.3 °F /  10.7 °C 48.7 °F /  9.3 °C 30in /  1014.6hPa WNW 6.9mph /  11.1km/h 9mph /  14.5km/h 91% 0in /  0.0mm 51 W/m2
15:13 51.3 °F /  10.7 °C 48.7 °F /  9.3 °C 30in /  1014.2hPa Calm   12mph /  19.3km/h 91% 0in /  0.0mm 105 W/m2
15:18 51.3 °F /  10.7 °C 48.4 °F /  9.1 °C 30in /  1014.2hPa North 2mph /  3.2km/h 13mph /  20.9km/h 90% 0in /  0.0mm 70 W/m2
15:23 51.3 °F /  10.7 °C 48.4 °F /  9.1 °C 29.9in /  1013.9hPa NW 8.1mph /  13km/h 9mph /  14.5km/h 90% 0in /  0.0mm 90 W/m2
15:28 51.3 °F /  10.7 °C 48.4 °F /  9.1 °C 29.9in /  1013.9hPa NW 2.9mph /  4.7km/h 9mph /  14.5km/h 90% 0in /  0.0mm 74 W/m2
15:33 51.3 °F /  10.7 °C 48.4 °F /  9.1 °C 29.9in /  1013.9hPa WNW 6.9mph /  11.1km/h 8mph /  12.9km/h 90% 0in /  0.0mm 88 W/m2
15:38 51.3 °F /  10.7 °C 48.4 °F /  9.1 °C 29.9in /  1013.9hPa WNW 6.9mph /  11.1km/h 9mph /  14.5km/h 90% 0in /  0.0mm 70 W/m2
15:43 51.3 °F /  10.7 °C 48.4 °F /  9.1 °C 29.9in /  1013.9hPa WSW 8.1mph /  13km/h 12mph /  19.3km/h 90% 0in /  0.0mm 67 W/m2
15:48 51.3 °F /  10.7 °C 48.2 °F /  9 °C 29.9in /  1013.9hPa WNW 4.9mph /  7.9km/h 10mph /  16.1km/h 89% 0in /  0.0mm 63 W/m2
15:53 51.4 °F /  10.8 °C 48.4 °F /  9.1 °C 29.9in /  1013.9hPa WSW 2.9mph /  4.7km/h 8mph /  12.9km/h 89% 0in /  0.0mm 49 W/m2
15:58 51.4 °F /  10.8 °C 48.4 °F /  9.1 °C 29.9in /  1013.5hPa West 8.1mph /  13km/h 14mph /  22.5km/h 89% 0in /  0.0mm 49 W/m2
16:03 51.4 °F /  10.8 °C 48 °F /  8.9 °C 29.9in /  1013.9hPa NW 2.9mph /  4.7km/h 5mph /  8km/h 88% 0in /  0.0mm 40 W/m2
16:08 51.4 °F /  10.8 °C 48 °F /  8.9 °C 29.9in /  1013.5hPa West 6mph /  9.7km/h 14mph /  22.5km/h 88% 0in /  0.0mm 44 W/m2
16:13 51.4 °F /  10.8 °C 48 °F /  8.9 °C 29.9in /  1013.5hPa West 2.9mph /  4.7km/h 8mph /  12.9km/h 88% 0in /  0.0mm 37 W/m2
16:18 51.4 °F /  10.8 °C 48 °F /  8.9 °C 29.9in /  1013.5hPa WNW 2.9mph /  4.7km/h 9mph /  14.5km/h 88% 0in /  0.0mm 33 W/m2
16:23 51.4 °F /  10.8 °C 48 °F /  8.9 °C 29.9in /  1013.5hPa West 6mph /  9.7km/h 9mph /  14.5km/h 88% 0in /  0.0mm 35 W/m2
16:28 51.4 °F /  10.8 °C 48 °F /  8.9 °C 29.9in /  1013.2hPa WSW 4mph /  6.4km/h 8mph /  12.9km/h 88% 0in /  0.0mm 37 W/m2
16:33 51.4 °F /  10.8 °C 47.7 °F /  8.7 °C 29.9in /  1013.2hPa North 4mph /  6.4km/h 10mph /  16.1km/h 87% 0in /  0.0mm 44 W/m2
16:38 51.4 °F /  10.8 °C 47.7 °F /  8.7 °C 29.9in /  1012.9hPa West 0.9mph /  1.4km/h 4mph /  6.4km/h 87% 0in /  0.0mm 33 W/m2
16:43 51.4 °F /  10.8 °C 47.7 °F /  8.7 °C 29.9in /  1012.9hPa NNW 4.9mph /  7.9km/h 14mph /  22.5km/h 87% 0in /  0.0mm 37 W/m2
16:48 51.4 °F /  10.8 °C 47.7 °F /  8.7 °C 29.9in /  1012.5hPa West 2mph /  3.2km/h 7mph /  11.3km/h 87% 0in /  0.0mm 44 W/m2
16:53 51.6 °F /  10.9 °C 47.5 °F /  8.6 °C 29.9in /  1012.5hPa WNW 2mph /  3.2km/h 14mph /  22.5km/h 86% 0in /  0.0mm 40 W/m2
16:58 51.6 °F /  10.9 °C 47.5 °F /  8.6 °C 29.9in /  1012.2hPa North 2mph /  3.2km/h 4mph /  6.4km/h 86% 0in /  0.0mm 40 W/m2
17:03 51.6 °F /  10.9 °C 47.5 °F /  8.6 °C 29.9in /  1012.2hPa West 2.9mph /  4.7km/h 10mph /  16.1km/h 86% 0in /  0.0mm 40 W/m2
17:08 51.6 °F /  10.9 °C 47.5 °F /  8.6 °C 29.9in /  1012.2hPa NNW 6mph /  9.7km/h 8mph /  12.9km/h 86% 0in /  0.0mm 35 W/m2
17:13 51.8 °F /  11 °C 47.7 °F /  8.7 °C 29.9in /  1011.9hPa NNE 2mph /  3.2km/h 6mph /  9.7km/h 86% 0in /  0.0mm 28 W/m2
17:18 52 °F /  11.1 °C 47.7 °F /  8.7 °C 29.9in /  1012.2hPa West 4mph /  6.4km/h 7mph /  11.3km/h 85% 0in /  0.0mm 26 W/m2
17:23 52 °F /  11.1 °C 47.7 °F /  8.7 °C 29.9in /  1012.2hPa NW 2.9mph /  4.7km/h 13mph /  20.9km/h 85% 0in /  0.0mm 16 W/m2
17:28 52 °F /  11.1 °C 47.7 °F /  8.7 °C 29.9in /  1012.2hPa West 4mph /  6.4km/h 9mph /  14.5km/h 85% 0in /  0.0mm 9 W/m2
17:33 52 °F /  11.1 °C 47.7 °F /  8.7 °C 29.9in /  1012.2hPa West 2.9mph /  4.7km/h 4mph /  6.4km/h 85% 0in /  0.0mm 7 W/m2
17:38 52 °F /  11.1 °C 47.7 °F /  8.7 °C 29.9in /  1012.2hPa NW 2mph /  3.2km/h 3mph /  4.8km/h 85% 0in /  0.0mm 7 W/m2
17:43 52 °F /  11.1 °C 47.7 °F /  8.7 °C 29.9in /  1012.2hPa Calm   3mph /  4.8km/h 85% 0in /  0.0mm 5 W/m2
17:48 51.8 °F /  11 °C 47.7 °F /  8.7 °C 29.9in /  1011.9hPa West 6.9mph /  11.1km/h 7mph /  11.3km/h 86% 0in /  0.0mm 0 W/m2
17:53 51.8 °F /  11 °C 47.7 °F /  8.7 °C 29.9in /  1012.2hPa WNW 2mph /  3.2km/h 9mph /  14.5km/h 86% 0in /  0.0mm 0 W/m2
17:58 51.6 °F /  10.9 °C 47.5 °F /  8.6 °C 29.9in /  1012.2hPa NNW 2mph /  3.2km/h 4mph /  6.4km/h 86% 0in /  0.0mm 0 W/m2
18:03 51.6 °F /  10.9 °C 47.5 °F /  8.6 °C 29.9in /  1012.2hPa WNW 2mph /  3.2km/h 2mph /  3.2km/h 86% 0in /  0.0mm 0 W/m2
18:08 51.6 °F /  10.9 °C 47.3 °F /  8.5 °C 29.9in /  1012.2hPa West 8.9mph /  14.3km/h 12mph /  19.3km/h 85% 0in /  0.0mm 0 W/m2
18:13 51.6 °F /  10.9 °C 46.9 °F /  8.3 °C 29.9in /  1012.2hPa NW 2.9mph /  4.7km/h 13mph /  20.9km/h 84% 0in /  0.0mm 0 W/m2
18:18 51.4 °F /  10.8 °C 46.8 °F /  8.2 °C 29.9in /  1011.9hPa WNW 2mph /  3.2km/h 8mph /  12.9km/h 84% 0in /  0.0mm 0 W/m2
18:23 51.4 °F /  10.8 °C 46.4 °F /  8 °C 29.9in /  1011.9hPa West 8.9mph /  14.3km/h 11mph /  17.7km/h 83% 0in /  0.0mm 0 W/m2
18:28 51.4 °F /  10.8 °C 46.2 °F /  7.9 °C 29.9in /  1012.2hPa WNW 6mph /  9.7km/h 11mph /  17.7km/h 82% 0in /  0.0mm 0 W/m2
18:33 51.4 °F /  10.8 °C 46.2 °F /  7.9 °C 29.9in /  1011.9hPa West 6.9mph /  11.1km/h 18mph /  29km/h 82% 0in /  0.0mm 0 W/m2
18:38 51.3 °F /  10.7 °C 45.7 °F /  7.6 °C 29.9in /  1011.9hPa WSW 6mph /  9.7km/h 13mph /  20.9km/h 81% 0in /  0.0mm 0 W/m2
18:43 51.3 °F /  10.7 °C 45.7 °F /  7.6 °C 29.9in /  1012.2hPa North 4.9mph /  7.9km/h 19mph /  30.6km/h 81% 0in /  0.0mm 0 W/m2
18:48 51.3 °F /  10.7 °C 45.7 °F /  7.6 °C 29.9in /  1011.9hPa West 8.9mph /  14.3km/h 12mph /  19.3km/h 81% 0in /  0.0mm 0 W/m2
18:53 51.1 °F /  10.6 °C 45.5 °F /  7.5 °C 29.9in /  1012.2hPa NW 8.1mph /  13km/h 19mph /  30.6km/h 81% 0in /  0.0mm 0 W/m2
18:58 51.1 °F /  10.6 °C 45.5 °F /  7.5 °C 29.9in /  1012.2hPa WSW 4.9mph /  7.9km/h 14mph /  22.5km/h 81% 0in /  0.0mm 0 W/m2
19:03 50.9 °F /  10.5 °C 45.3 °F /  7.4 °C 29.9in /  1012.2hPa WNW 2.9mph /  4.7km/h 15mph /  24.1km/h 81% 0in /  0.0mm 0 W/m2
19:08 50.9 °F /  10.5 °C 45.3 °F /  7.4 °C 29.9in /  1012.2hPa West 4mph /  6.4km/h 20mph /  32.2km/h 81% 0in /  0.0mm 0 W/m2
19:13 50.7 °F /  10.4 °C 45.1 °F /  7.3 °C 29.9in /  1012.2hPa WSW 8.1mph /  13km/h 11mph /  17.7km/h 81% 0in /  0.0mm 0 W/m2
19:18 50.7 °F /  10.4 °C 45.1 °F /  7.3 °C 29.9in /  1012.2hPa NW 4mph /  6.4km/h 16mph /  25.7km/h 81% 0in /  0.0mm 0 W/m2
19:23 50.7 °F /  10.4 °C 45.1 °F /  7.3 °C 29.9in /  1011.9hPa NW 4mph /  6.4km/h 10mph /  16.1km/h 81% 0in /  0.0mm 0 W/m2
19:28 50.7 °F /  10.4 °C 45.1 °F /  7.3 °C 29.9in /  1012.2hPa NW 4mph /  6.4km/h 16mph /  25.7km/h 81% 0in /  0.0mm 0 W/m2
19:33 50.7 °F /  10.4 °C 45.1 °F /  7.3 °C 29.9in /  1011.9hPa WSW 8.1mph /  13km/h 14mph /  22.5km/h 81% 0in /  0.0mm 0 W/m2
19:38 50.7 °F /  10.4 °C 45.1 °F /  7.3 °C 29.9in /  1011.9hPa WNW 8.9mph /  14.3km/h 13mph /  20.9km/h 81% 0in /  0.0mm 0 W/m2
19:43 50.7 °F /  10.4 °C 45.1 °F /  7.3 °C 29.9in /  1011.9hPa WNW 4.9mph /  7.9km/h 10mph /  16.1km/h 81% 0in /  0.0mm 0 W/m2
19:48 50.7 °F /  10.4 °C 45.1 °F /  7.3 °C 29.9in /  1011.9hPa WNW 2.9mph /  4.7km/h 5mph /  8km/h 81% 0in /  0.0mm 0 W/m2
19:53 50.9 °F /  10.5 °C 45.3 °F /  7.4 °C 29.9in /  1011.9hPa NNW 4.9mph /  7.9km/h 10mph /  16.1km/h 81% 0in /  0.0mm 0 W/m2
19:58 50.7 °F /  10.4 °C 45.1 °F /  7.3 °C 29.9in /  1011.9hPa West 4mph /  6.4km/h 7mph /  11.3km/h 81% 0in /  0.0mm 0 W/m2
20:03 50.7 °F /  10.4 °C 45.5 °F /  7.5 °C 29.9in /  1011.9hPa West 8.1mph /  13km/h 11mph /  17.7km/h 82% 0in /  0.0mm 0 W/m2
20:08 50.7 °F /  10.4 °C 45.5 °F /  7.5 °C 29.9in /  1011.9hPa West 2.9mph /  4.7km/h 8mph /  12.9km/h 82% 0in /  0.0mm 0 W/m2
20:13 50.7 °F /  10.4 °C 45.5 °F /  7.5 °C 29.9in /  1011.9hPa WSW 2mph /  3.2km/h 8mph /  12.9km/h 82% 0in /  0.0mm 0 W/m2
20:18 50.7 °F /  10.4 °C 45.5 °F /  7.5 °C 29.9in /  1011.9hPa WSW 6.9mph /  11.1km/h 13mph /  20.9km/h 82% 0in /  0.0mm 0 W/m2
20:23 50.7 °F /  10.4 °C 45.5 °F /  7.5 °C 29.9in /  1011.5hPa NW 4mph /  6.4km/h 10mph /  16.1km/h 82% 0in /  0.0mm 0 W/m2
20:28 50.7 °F /  10.4 °C 45.5 °F /  7.5 °C 29.9in /  1011.5hPa North 2.9mph /  4.7km/h 13mph /  20.9km/h 82% 0in /  0.0mm 0 W/m2
20:33 50.7 °F /  10.4 °C 45.5 °F /  7.5 °C 29.9in /  1011.5hPa WNW 2.9mph /  4.7km/h 8mph /  12.9km/h 82% 0in /  0.0mm 0 W/m2
20:38 50.7 °F /  10.4 °C 45.5 °F /  7.5 °C 29.9in /  1011.5hPa South 2.9mph /  4.7km/h 11mph /  17.7km/h 82% 0in /  0.0mm 0 W/m2
20:43 50.7 °F /  10.4 °C 45.5 °F /  7.5 °C 29.9in /  1011.2hPa NW 4mph /  6.4km/h 4mph /  6.4km/h 82% 0in /  0.0mm 0 W/m2
20:48 50.7 °F /  10.4 °C 45.5 °F /  7.5 °C 29.9in /  1011.2hPa NE 2mph /  3.2km/h 3mph /  4.8km/h 82% 0in /  0.0mm 0 W/m2
20:53 50.7 °F /  10.4 °C 45.5 °F /  7.5 °C 29.9in /  1010.8hPa ENE 0.9mph /  1.4km/h 7mph /  11.3km/h 82% 0in /  0.0mm 0 W/m2
20:58 50.5 °F /  10.3 °C 45.3 °F /  7.4 °C 29.9in /  1010.8hPa WSW 0.9mph /  1.4km/h 9mph /  14.5km/h 82% 0in /  0.0mm 0 W/m2
21:03 50.5 °F /  10.3 °C 45.5 °F /  7.5 °C 29.9in /  1010.8hPa NNE 0.9mph /  1.4km/h 3mph /  4.8km/h 83% 0in /  0.0mm 0 W/m2
21:08 50.5 °F /  10.3 °C 45.5 °F /  7.5 °C 29.9in /  1010.8hPa West 4mph /  6.4km/h 10mph /  16.1km/h 83% 0in /  0.0mm 0 W/m2
21:13 50.5 °F /  10.3 °C 45.5 °F /  7.5 °C 29.9in /  1010.8hPa NNW 4mph /  6.4km/h 14mph /  22.5km/h 83% 0in /  0.0mm 0 W/m2
21:18 50.5 °F /  10.3 °C 45.3 °F /  7.4 °C 29.9in /  1010.8hPa WNW 6.9mph /  11.1km/h 7mph /  11.3km/h 82% 0in /  0.0mm 0 W/m2
21:23 50.5 °F /  10.3 °C 45.3 °F /  7.4 °C 29.9in /  1010.8hPa NW 4mph /  6.4km/h 5mph /  8km/h 82% 0in /  0.0mm 0 W/m2
21:28 50.7 °F /  10.4 °C 45.7 °F /  7.6 °C 29.9in /  1010.8hPa NW 2.9mph /  4.7km/h 13mph /  20.9km/h 83% 0in /  0.0mm 0 W/m2
21:33 50.5 °F /  10.3 °C 45.5 °F /  7.5 °C 29.9in /  1010.8hPa NNW 2mph /  3.2km/h 8mph /  12.9km/h 83% 0in /  0.0mm 0 W/m2
21:38 50.5 °F /  10.3 °C 45.5 °F /  7.5 °C 29.9in /  1010.8hPa North 4mph /  6.4km/h 7mph /  11.3km/h 83% 0in /  0.0mm 0 W/m2
21:43 50.5 °F /  10.3 °C 45.5 °F /  7.5 °C 29.9in /  1010.8hPa NNW 0.9mph /  1.4km/h 7mph /  11.3km/h 83% 0in /  0.0mm 0 W/m2
21:49 50.5 °F /  10.3 °C 45.5 °F /  7.5 °C 29.9in /  1010.8hPa NW 4.9mph /  7.9km/h 8mph /  12.9km/h 83% 0in /  0.0mm 0 W/m2
21:54 50.5 °F /  10.3 °C 45.5 °F /  7.5 °C 29.8in /  1010.5hPa WSW 2.9mph /  4.7km/h 8mph /  12.9km/h 83% 0in /  0.0mm 0 W/m2
21:59 50.5 °F /  10.3 °C 45.5 °F /  7.5 °C 29.9in /  1010.8hPa WNW 4.9mph /  7.9km/h 9mph /  14.5km/h 83% 0in /  0.0mm 0 W/m2
22:04 50.5 °F /  10.3 °C 45.5 °F /  7.5 °C 29.8in /  1010.5hPa West 4mph /  6.4km/h 6mph /  9.7km/h 83% 0in /  0.0mm 0 W/m2
22:09 50.5 °F /  10.3 °C 45.5 °F /  7.5 °C 29.8in /  1010.5hPa WNW 2.9mph /  4.7km/h 9mph /  14.5km/h 83% 0in /  0.0mm 0 W/m2
22:14 50.5 °F /  10.3 °C 45.5 °F /  7.5 °C 29.8in /  1010.5hPa West 4mph /  6.4km/h 10mph /  16.1km/h 83% 0in /  0.0mm 0 W/m2
22:19 50.5 °F /  10.3 °C 45.5 °F /  7.5 °C 29.8in /  1010.5hPa West 8.1mph /  13km/h 8mph /  12.9km/h 83% 0in /  0.0mm 0 W/m2
22:24 50.5 °F /  10.3 °C 45.5 °F /  7.5 °C 29.8in /  1010.5hPa NW 2mph /  3.2km/h 8mph /  12.9km/h 83% 0in /  0.0mm 0 W/m2
22:29 50.5 °F /  10.3 °C 45.5 °F /  7.5 °C 29.8in /  1010.2hPa NW 4mph /  6.4km/h 9mph /  14.5km/h 83% 0in /  0.0mm 0 W/m2
22:34 50.5 °F /  10.3 °C 45.5 °F /  7.5 °C 29.8in /  1010.2hPa SW 4mph /  6.4km/h 16mph /  25.7km/h 83% 0in /  0.0mm 0 W/m2
22:39 50.5 °F /  10.3 °C 45.5 °F /  7.5 °C 29.8in /  1010.2hPa NW 6.9mph /  11.1km/h 9mph /  14.5km/h 83% 0in /  0.0mm 0 W/m2
22:44 50.5 °F /  10.3 °C 45.5 °F /  7.5 °C 29.8in /  1010.2hPa WSW 10.1mph /  16.3km/h 12mph /  19.3km/h 83% 0in /  0.0mm 0 W/m2
22:49 50.5 °F /  10.3 °C 45.5 °F /  7.5 °C 29.8in /  1010.2hPa WSW 0.9mph /  1.4km/h 6mph /  9.7km/h 83% 0in /  0.0mm 0 W/m2
22:54 50.5 °F /  10.3 °C 45.5 °F /  7.5 °C 29.8in /  1009.8hPa WNW 6mph /  9.7km/h 10mph /  16.1km/h 83% 0in /  0.0mm 0 W/m2
23:00 50.5 °F /  10.3 °C 45.5 °F /  7.5 °C 29.8in /  1009.8hPa SW 2mph /  3.2km/h 13mph /  20.9km/h 83% 0in /  0.0mm 0 W/m2
23:05 50.4 °F /  10.2 °C 45.3 °F /  7.4 °C 29.8in /  1009.8hPa WSW 4mph /  6.4km/h 10mph /  16.1km/h 83% 0in /  0.0mm 0 W/m2
23:10 50.4 °F /  10.2 °C 45.3 °F /  7.4 °C 29.8in /  1010.2hPa WSW 8.1mph /  13km/h 22mph /  35.4km/h 83% 0in /  0.0mm 0 W/m2
23:15 50.2 °F /  10.1 °C 45.5 °F /  7.5 °C 29.8in /  1009.8hPa NNW 2.9mph /  4.7km/h 13mph /  20.9km/h 84% 0in /  0.0mm 0 W/m2
23:20 50.2 °F /  10.1 °C 45.5 °F /  7.5 °C 29.8in /  1009.8hPa NW 2.9mph /  4.7km/h 7mph /  11.3km/h 84% 0in /  0.0mm 0 W/m2
23:25 49.8 °F /  9.9 °C 45.5 °F /  7.5 °C 29.8in /  1009.8hPa WNW 4.9mph /  7.9km/h 12mph /  19.3km/h 85% 0in /  0.0mm 0 W/m2
23:30 49.6 °F /  9.8 °C 45.3 °F /  7.4 °C 29.8in /  1009.8hPa West 10.1mph /  16.3km/h 15mph /  24.1km/h 85% 0in /  0.0mm 0 W/m2
23:35 49.6 °F /  9.8 °C 45.7 °F /  7.6 °C 29.8in /  1009.5hPa WSW 4mph /  6.4km/h 12mph /  19.3km/h 86% 0in /  0.0mm 0 W/m2
23:40 49.5 °F /  9.7 °C 45.5 °F /  7.5 °C 29.8in /  1009.5hPa NNW 2.9mph /  4.7km/h 8mph /  12.9km/h 86% 0in /  0.0mm 0 W/m2
23:45 49.5 °F /  9.7 °C 45.5 °F /  7.5 °C 29.8in /  1009.5hPa West 4mph /  6.4km/h 15mph /  24.1km/h 86% 0in /  0.0mm 0 W/m2
23:50 49.3 °F /  9.6 °C 45.5 °F /  7.5 °C 29.8in /  1009.5hPa NNW 4mph /  6.4km/h 7mph /  11.3km/h 87% 0in /  0.0mm 0 W/m2
23:55 49.1 °F /  9.5 °C 45.3 °F /  7.4 °C 29.8in /  1009.5hPa Calm   15mph /  24.1km/h 87% 0in /  0.0mm 0 W/m2
Juneau County Weather
Compliments of Weather Underground - 4 mb